createdAt,value
2022-12-08T00:01:22.258Z,33.78
2022-12-08T00:06:44.826Z,31.33
2022-12-08T00:09:22.166Z,33.92
2022-12-08T00:11:58.082Z,34.90
2022-12-08T00:14:37.678Z,35.55
2022-12-08T00:17:06.686Z,33.17
2022-12-08T00:19:34.277Z,36.17
2022-12-08T00:22:01.773Z,33.63
2022-12-08T00:24:35.061Z,36.40
2022-12-08T00:27:02.853Z,34.78
2022-12-08T00:29:29.852Z,32.60
2022-12-08T00:31:57.099Z,35.17
2022-12-08T00:34:24.170Z,35.35
2022-12-08T00:36:51.297Z,36.20
2022-12-08T00:39:18.887Z,34.90
2022-12-08T00:42:04.398Z,33.92
2022-12-08T00:44:31.619Z,34.47
2022-12-08T00:46:58.977Z,33.60
2022-12-08T00:49:25.897Z,31.75
2022-12-08T00:51:53.032Z,32.78
2022-12-08T00:54:20.805Z,32.60
2022-12-08T00:56:48.049Z,31.95
2022-12-08T00:59:15.240Z,33.53
2022-12-08T01:01:45.433Z,33.47
2022-12-08T01:04:17.571Z,31.55
2022-12-08T01:06:45.268Z,32.03
2022-12-08T01:09:13.803Z,34.03
2022-12-08T01:11:40.962Z,34.15
2022-12-08T01:14:07.812Z,30.95
2022-12-08T01:16:36.976Z,31.65
2022-12-08T01:19:04.319Z,30.75
2022-12-08T01:21:31.337Z,31.52
2022-12-08T01:24:00.166Z,28.02
2022-12-08T01:26:27.166Z,27.98
2022-12-08T01:28:54.708Z,28.02
2022-12-08T01:31:24.371Z,25.35
2022-12-08T01:33:51.364Z,25.13
2022-12-08T01:36:24.917Z,22.05
2022-12-08T01:38:52.940Z,21.13
2022-12-08T01:41:23.000Z,19.88
2022-12-08T01:44:08.945Z,19.02
2022-12-08T01:46:39.132Z,18.55
2022-12-08T01:49:23.168Z,18.45
2022-12-08T01:52:03.665Z,18.33
2022-12-08T01:54:37.084Z,19.30
2022-12-08T01:57:10.195Z,19.23
2022-12-08T01:59:42.025Z,20.05
2022-12-08T02:02:11.559Z,19.05
2022-12-08T02:07:08.504Z,18.42
2022-12-08T02:09:38.594Z,21.63
2022-12-08T02:12:05.815Z,19.67
2022-12-08T02:14:52.716Z,19.95
2022-12-08T02:17:37.436Z,18.70
2022-12-08T02:20:29.533Z,18.20
2022-12-08T02:23:05.374Z,22.85
2022-12-08T02:25:38.330Z,21.25
2022-12-08T02:28:35.585Z,18.77
2022-12-08T02:31:28.116Z,18.17
2022-12-08T02:34:10.881Z,19.25
2022-12-08T02:36:49.278Z,17.95
2022-12-08T02:39:55.574Z,19.58
2022-12-08T02:42:47.067Z,17.40
2022-12-08T02:45:30.277Z,19.05
2022-12-08T02:47:59.201Z,18.20
2022-12-08T02:50:27.677Z,18.20
2022-12-08T02:52:54.896Z,17.92
2022-12-08T02:55:29.556Z,17.48
2022-12-08T02:58:11.817Z,17.67
2022-12-08T03:00:57.296Z,18.30
2022-12-08T03:03:35.729Z,17.92
2022-12-08T03:06:09.373Z,18.25
2022-12-08T03:08:51.803Z,18.50
2022-12-08T03:11:31.857Z,17.63
2022-12-08T03:14:01.825Z,17.60
2022-12-08T03:16:30.831Z,18.75
2022-12-08T03:19:12.078Z,18.75
2022-12-08T03:21:41.340Z,17.58
2022-12-08T03:24:10.868Z,16.80
2022-12-08T03:26:50.235Z,17.77
2022-12-08T03:29:18.056Z,18.23
2022-12-08T03:31:54.200Z,18.05
2022-12-08T03:34:23.576Z,18.92
2022-12-08T03:36:50.478Z,19.73
2022-12-08T03:39:17.407Z,19.33
2022-12-08T03:41:45.597Z,19.52
2022-12-08T03:44:12.628Z,19.88
2022-12-08T03:46:39.653Z,20.52
2022-12-08T03:49:06.837Z,21.35
2022-12-08T03:51:33.814Z,23.25
2022-12-08T03:54:00.848Z,24.73
2022-12-08T03:56:37.305Z,24.25
2022-12-08T03:59:05.603Z,23.55
2022-12-08T04:01:33.004Z,23.95
2022-12-08T04:04:00.189Z,23.90
2022-12-08T04:06:27.154Z,24.83
2022-12-08T04:08:54.209Z,24.67
2022-12-08T04:11:21.447Z,23.92
2022-12-08T04:13:48.782Z,25.17
2022-12-08T04:16:19.085Z,24.40
2022-12-08T04:18:46.226Z,23.17
2022-12-08T04:21:13.712Z,23.25
2022-12-08T04:23:40.707Z,23.65
2022-12-08T04:26:08.017Z,24.38
2022-12-08T04:28:35.366Z,24.60
2022-12-08T04:31:02.975Z,23.08
2022-12-08T04:33:29.974Z,24.33
2022-12-08T04:35:56.970Z,25.20
2022-12-08T04:38:24.099Z,22.33
2022-12-08T04:40:51.035Z,23.73
2022-12-08T04:43:18.177Z,23.48
2022-12-08T04:45:48.127Z,22.80
2022-12-08T04:48:15.579Z,23.88
2022-12-08T04:50:44.391Z,23.88
2022-12-08T04:53:13.097Z,23.55
2022-12-08T04:55:45.029Z,22.60
2022-12-08T04:58:14.089Z,23.20
2022-12-08T05:00:41.890Z,24.52
2022-12-08T05:03:09.415Z,22.75
2022-12-08T05:05:36.441Z,23.13
2022-12-08T05:08:03.527Z,23.17
2022-12-08T05:10:30.455Z,23.42
2022-12-08T05:12:58.822Z,23.60
2022-12-08T05:15:25.871Z,23.40
2022-12-08T05:17:53.167Z,22.02
2022-12-08T05:20:20.103Z,22.98
2022-12-08T05:22:47.259Z,22.73
2022-12-08T05:25:15.016Z,22.65
2022-12-08T05:27:43.163Z,21.50
2022-12-08T05:30:11.064Z,24.10
2022-12-08T05:32:37.957Z,24.80
2022-12-08T05:35:05.570Z,26.65
2022-12-08T05:37:32.465Z,26.77
2022-12-08T05:39:59.325Z,30.17
2022-12-08T05:42:26.336Z,29.25
2022-12-08T05:44:53.381Z,28.70
2022-12-08T05:47:20.556Z,27.58
2022-12-08T05:49:47.755Z,29.88
2022-12-08T05:52:16.894Z,27.83
2022-12-08T05:54:44.322Z,28.17
2022-12-08T05:57:11.657Z,26.42
2022-12-08T05:59:39.762Z,27.60
2022-12-08T06:02:08.868Z,29.40
2022-12-08T06:04:36.755Z,29.20
2022-12-08T06:07:03.772Z,25.85
2022-12-08T06:09:31.017Z,25.70
2022-12-08T06:11:57.919Z,26.92
2022-12-08T06:14:25.528Z,28.98
2022-12-08T06:16:52.901Z,32.00
2022-12-08T06:19:20.363Z,39.03
2022-12-08T06:21:47.202Z,30.83
2022-12-08T06:24:15.498Z,28.05
2022-12-08T06:26:43.460Z,27.83
2022-12-08T06:29:10.611Z,29.75
2022-12-08T06:31:37.594Z,28.77
2022-12-08T06:34:05.010Z,30.48
2022-12-08T06:36:32.334Z,32.28
2022-12-08T06:39:00.599Z,32.58
2022-12-08T06:41:27.691Z,29.98
2022-12-08T06:43:58.079Z,30.40
2022-12-08T06:46:25.423Z,29.15
2022-12-08T06:48:53.220Z,27.85
2022-12-08T06:51:23.815Z,28.98
2022-12-08T06:53:50.893Z,27.83
2022-12-08T06:56:20.379Z,27.20
2022-12-08T06:58:52.560Z,27.42
2022-12-08T07:01:20.574Z,27.92
2022-12-08T07:03:48.095Z,26.73
2022-12-08T07:06:18.220Z,26.50
2022-12-08T07:08:45.348Z,28.25
2022-12-08T07:11:18.071Z,26.65
2022-12-08T07:13:48.254Z,25.83
2022-12-08T07:16:15.433Z,27.27
2022-12-08T07:18:44.053Z,27.77
2022-12-08T07:21:13.363Z,27.00
2022-12-08T07:26:10.529Z,37.03
2022-12-08T07:28:39.035Z,39.67
2022-12-08T07:31:07.276Z,32.35
2022-12-08T07:33:36.068Z,30.10
2022-12-08T07:36:06.847Z,29.55
2022-12-08T07:38:34.262Z,29.05
2022-12-08T07:41:01.628Z,30.63
2022-12-08T07:43:28.957Z,29.55
2022-12-08T07:45:56.427Z,26.23
2022-12-08T07:48:23.477Z,27.80
2022-12-08T07:50:50.770Z,26.40
2022-12-08T07:53:17.841Z,25.80
2022-12-08T07:55:45.069Z,25.63
2022-12-08T07:58:12.282Z,24.70
2022-12-08T08:00:39.300Z,24.90
2022-12-08T08:03:06.635Z,27.20
2022-12-08T08:05:33.806Z,27.90
2022-12-08T08:08:00.825Z,28.27
2022-12-08T08:10:28.538Z,26.90
2022-12-08T08:12:59.809Z,28.83
2022-12-08T08:15:27.765Z,29.23
2022-12-08T08:17:54.729Z,29.10
2022-12-08T08:20:22.342Z,27.67
2022-12-08T08:22:51.657Z,27.75
2022-12-08T08:25:20.461Z,28.07
2022-12-08T08:27:49.233Z,26.70
2022-12-08T08:30:20.380Z,27.00
2022-12-08T08:32:50.020Z,26.27
2022-12-08T08:35:17.073Z,25.40
2022-12-08T08:37:48.805Z,29.07
2022-12-08T08:40:18.129Z,25.30
2022-12-08T08:42:45.315Z,22.30
2022-12-08T08:45:12.497Z,27.38
2022-12-08T08:47:39.553Z,25.15
2022-12-08T08:50:07.654Z,24.08
2022-12-08T08:52:34.870Z,21.40
2022-12-08T08:55:02.101Z,23.30
2022-12-08T08:57:31.103Z,22.75
2022-12-08T08:59:57.982Z,23.95
2022-12-08T09:02:26.033Z,24.48
2022-12-08T09:04:53.461Z,43.25
2022-12-08T09:07:20.513Z,22.92
2022-12-08T09:09:47.933Z,18.58
2022-12-08T09:12:15.053Z,17.23
2022-12-08T09:14:41.987Z,17.63
2022-12-08T09:17:10.050Z,14.98
2022-12-08T09:19:37.309Z,13.98
2022-12-08T09:22:06.014Z,12.50
2022-12-08T09:24:33.205Z,12.10
2022-12-08T09:27:00.347Z,17.25
2022-12-08T09:29:32.524Z,12.68
2022-12-08T09:32:03.777Z,12.73
2022-12-08T09:34:31.848Z,10.98
2022-12-08T09:36:59.963Z,18.48
2022-12-08T09:39:27.267Z,16.10
2022-12-08T09:42:01.253Z,14.20
2022-12-08T09:44:50.660Z,14.27
2022-12-08T09:47:35.304Z,13.18
2022-12-08T09:50:27.810Z,13.45
2022-12-08T09:53:03.995Z,12.70
2022-12-08T09:56:03.990Z,12.65
2022-12-08T09:58:56.543Z,12.93
2022-12-08T10:01:29.918Z,12.65
2022-12-08T10:03:57.209Z,12.15
2022-12-08T10:06:39.569Z,12.52
2022-12-08T10:09:42.843Z,13.65
2022-12-08T10:12:22.505Z,14.27
2022-12-08T10:15:22.983Z,12.27
2022-12-08T10:20:24.669Z,11.90
2022-12-08T10:23:07.354Z,12.90
2022-12-08T10:25:43.165Z,13.02
2022-12-08T10:28:11.916Z,12.68
2022-12-08T10:30:39.400Z,13.13
2022-12-08T10:33:14.199Z,13.10
2022-12-08T10:35:51.296Z,11.90
2022-12-08T10:38:19.905Z,12.60
2022-12-08T10:40:48.572Z,14.20
2022-12-08T10:43:21.742Z,22.10
2022-12-08T10:45:49.386Z,14.02
2022-12-08T10:48:16.238Z,13.20
2022-12-08T10:50:47.252Z,14.57
2022-12-08T10:53:20.958Z,15.63
2022-12-08T10:55:51.810Z,14.43
2022-12-08T10:58:41.222Z,16.33
2022-12-08T11:01:21.211Z,15.85
2022-12-08T11:03:59.327Z,14.98
2022-12-08T11:06:37.054Z,15.98
2022-12-08T11:09:24.169Z,15.52
2022-12-08T11:12:07.517Z,17.23
2022-12-08T11:14:43.722Z,15.77
2022-12-08T11:17:10.936Z,16.08
2022-12-08T11:19:40.375Z,15.65
2022-12-08T11:22:27.761Z,15.02
2022-12-08T11:25:12.857Z,14.20
2022-12-08T11:27:46.589Z,14.70
2022-12-08T11:30:20.363Z,12.95
2022-12-08T11:32:51.121Z,14.98
2022-12-08T11:35:30.225Z,14.30
2022-12-08T11:38:21.627Z,13.10
2022-12-08T11:40:54.551Z,12.10
2022-12-08T11:43:30.971Z,11.57
2022-12-08T11:46:02.496Z,11.73
2022-12-08T11:48:37.407Z,12.05
2022-12-08T11:51:14.462Z,20.40
2022-12-08T11:53:47.476Z,14.50
2022-12-08T11:56:22.065Z,13.32
2022-12-08T11:58:58.631Z,11.48
2022-12-08T12:01:26.736Z,11.27
2022-12-08T12:04:12.637Z,11.85
2022-12-08T12:06:56.626Z,10.93
2022-12-08T12:09:38.851Z,10.77
2022-12-08T12:12:39.287Z,12.15
2022-12-08T12:15:25.804Z,11.05
2022-12-08T12:18:16.471Z,11.70
2022-12-08T12:20:52.141Z,12.10
2022-12-08T12:23:44.920Z,11.93
2022-12-08T12:26:21.814Z,11.55
2022-12-08T12:29:02.816Z,11.98
2022-12-08T12:31:43.481Z,11.15
2022-12-08T12:34:24.407Z,11.55
2022-12-08T12:37:03.606Z,11.93
2022-12-08T12:39:35.567Z,11.95
2022-12-08T12:42:05.136Z,11.45
2022-12-08T12:44:32.448Z,10.20
2022-12-08T12:47:01.680Z,9.45
2022-12-08T12:49:41.072Z,10.35
2022-12-08T12:55:10.891Z,8.90
2022-12-08T12:57:55.880Z,9.82
2022-12-08T13:00:27.676Z,10.48
2022-12-08T13:02:58.897Z,9.20
2022-12-08T13:05:52.977Z,9.55
2022-12-08T13:08:27.848Z,9.15
2022-12-08T13:11:09.943Z,10.45
2022-12-08T13:13:38.828Z,9.82
2022-12-08T13:16:18.439Z,8.93
2022-12-08T13:18:58.018Z,10.38
2022-12-08T13:21:39.102Z,8.77
2022-12-08T13:24:13.218Z,8.68
2022-12-08T13:26:44.667Z,8.57
2022-12-08T13:29:19.623Z,8.57
2022-12-08T13:31:58.308Z,8.80
2022-12-08T13:34:45.998Z,9.65
2022-12-08T13:37:16.333Z,9.73
2022-12-08T13:39:55.741Z,9.63
2022-12-08T13:42:44.298Z,9.75
2022-12-08T13:53:35.022Z,10.07
2022-12-08T13:55:12.988Z,10.43
2022-12-08T13:57:33.193Z,9.90
2022-12-08T14:00:06.692Z,9.88
2022-12-08T14:02:47.696Z,9.82
2022-12-08T14:05:21.700Z,10.40
2022-12-08T14:07:56.404Z,9.82
2022-12-08T14:10:30.653Z,11.55
2022-12-08T14:13:04.895Z,12.05
2022-12-08T14:15:38.565Z,11.10
2022-12-08T14:18:07.327Z,11.95
2022-12-08T14:20:57.786Z,10.70
2022-12-08T14:23:22.679Z,11.63
2022-12-08T14:25:49.840Z,12.20
2022-12-08T14:28:17.195Z,11.52
2022-12-08T14:30:45.032Z,11.50
2022-12-08T14:33:15.324Z,12.23
2022-12-08T14:35:43.008Z,12.57
2022-12-08T14:38:18.970Z,12.38
2022-12-08T14:41:09.025Z,13.27
2022-12-08T14:43:36.271Z,13.02
2022-12-08T14:46:19.282Z,12.98
2022-12-08T14:48:46.707Z,12.38
2022-12-08T14:51:19.744Z,14.57
2022-12-08T14:54:08.726Z,13.73
2022-12-08T14:56:53.576Z,13.43
2022-12-08T14:59:30.312Z,13.25
2022-12-08T15:02:16.030Z,14.50
2022-12-08T15:04:45.997Z,16.38
2022-12-08T15:07:17.452Z,16.70
2022-12-08T15:09:50.492Z,15.73
2022-12-08T15:12:27.014Z,17.80
2022-12-08T15:14:59.347Z,17.25
2022-12-08T15:17:45.406Z,17.00
2022-12-08T15:20:50.309Z,17.20
2022-12-08T15:23:25.295Z,18.55
2022-12-08T15:25:54.229Z,17.25
2022-12-08T15:28:29.429Z,19.33
2022-12-08T15:30:57.966Z,16.85
2022-12-08T15:33:25.816Z,17.08
2022-12-08T15:35:53.133Z,18.33
2022-12-08T15:38:26.601Z,18.08
2022-12-08T15:40:54.540Z,20.20
2022-12-08T15:43:22.247Z,19.40
2022-12-08T15:45:58.505Z,20.27
2022-12-08T15:48:30.509Z,24.90
2022-12-08T15:50:58.439Z,22.08
2022-12-08T15:53:25.750Z,26.48
2022-12-08T15:56:25.949Z,25.25
2022-12-08T15:58:57.023Z,22.65
2022-12-08T16:01:25.792Z,22.33
2022-12-08T16:07:20.845Z,20.02
2022-12-08T16:09:41.448Z,66.60
2022-12-08T16:13:48.133Z,60.60
2022-12-08T16:18:24.064Z,28.52
2022-12-08T16:21:09.564Z,27.65
2022-12-08T16:23:46.026Z,30.67
2022-12-08T16:26:49.091Z,28.73
2022-12-08T16:29:07.745Z,24.40
2022-12-08T16:31:35.203Z,23.45
2022-12-08T16:34:02.461Z,22.45
2022-12-08T16:36:29.474Z,31.80
2022-12-08T16:38:57.862Z,18.05
2022-12-08T16:41:44.008Z,22.17
2022-12-08T16:44:11.343Z,23.85
2022-12-08T16:46:38.337Z,23.70
2022-12-08T16:49:09.464Z,20.02
2022-12-08T16:51:36.893Z,16.92
2022-12-08T16:54:03.954Z,15.70
2022-12-08T16:56:33.438Z,13.65
2022-12-08T16:59:02.148Z,12.88
2022-12-08T17:01:29.544Z,12.20
2022-12-08T17:04:22.954Z,12.32
2022-12-08T17:06:43.867Z,13.07
2022-12-08T17:09:14.001Z,12.90
2022-12-08T17:11:43.289Z,13.43
2022-12-08T17:14:14.559Z,14.15
2022-12-08T17:16:43.146Z,12.63
2022-12-08T17:19:12.608Z,11.30
2022-12-08T17:21:39.666Z,10.95
2022-12-08T17:24:07.114Z,11.93
2022-12-08T17:26:34.276Z,12.43
2022-12-08T17:29:02.894Z,13.15
2022-12-08T17:31:32.232Z,14.73
2022-12-08T17:34:01.967Z,14.90
2022-12-08T17:36:29.410Z,16.73
2022-12-08T17:38:57.177Z,15.43
2022-12-08T17:41:24.472Z,15.57
2022-12-08T17:43:51.756Z,15.95
2022-12-08T17:46:19.988Z,19.20
2022-12-08T17:49:05.819Z,15.65
2022-12-08T17:51:33.301Z,15.07
2022-12-08T17:54:01.061Z,14.63
2022-12-08T17:56:28.071Z,13.38
2022-12-08T17:58:55.534Z,15.05
2022-12-08T18:01:24.445Z,15.50
2022-12-08T18:03:51.768Z,14.38
2022-12-08T18:06:19.163Z,17.15
2022-12-08T18:08:46.564Z,14.90
2022-12-08T18:11:17.712Z,14.15
2022-12-08T18:13:47.137Z,14.90
2022-12-08T18:16:15.421Z,14.40
2022-12-08T18:21:11.180Z,13.35
2022-12-08T18:23:39.811Z,14.27
2022-12-08T18:26:08.654Z,13.50
2022-12-08T18:28:37.084Z,14.00
2022-12-08T18:31:12.527Z,13.60
2022-12-08T18:33:43.413Z,14.60
2022-12-08T18:38:39.042Z,14.00
2022-12-08T18:41:08.589Z,13.52
2022-12-08T18:43:37.070Z,13.98
2022-12-08T18:46:07.945Z,13.73
2022-12-08T18:48:40.277Z,13.45
2022-12-08T18:51:12.259Z,13.65
2022-12-08T18:53:40.152Z,13.85
2022-12-08T18:56:08.324Z,14.52
2022-12-08T18:58:37.223Z,17.52
2022-12-08T19:01:04.773Z,15.57
2022-12-08T19:03:32.016Z,14.02
2022-12-08T19:06:05.753Z,15.75
2022-12-08T19:08:33.591Z,13.50
2022-12-08T19:11:00.741Z,13.32
2022-12-08T19:13:28.141Z,13.77
2022-12-08T19:15:55.138Z,13.48
2022-12-08T19:18:22.454Z,12.82
2022-12-08T19:20:49.874Z,12.90
2022-12-08T19:23:17.135Z,11.50
2022-12-08T19:25:44.393Z,13.40
2022-12-08T19:28:11.290Z,13.45
2022-12-08T19:30:38.922Z,11.85
2022-12-08T19:33:06.461Z,12.02
2022-12-08T19:35:33.522Z,10.18
2022-12-08T19:38:00.613Z,10.15
2022-12-08T19:41:00.408Z,10.30
2022-12-08T19:43:48.633Z,10.52
2022-12-08T19:46:17.360Z,10.55
2022-12-08T19:48:44.968Z,11.48
2022-12-08T19:51:12.089Z,10.98
2022-12-08T19:53:44.370Z,13.00
2022-12-08T19:56:14.202Z,12.57
2022-12-08T19:58:41.665Z,12.68
2022-12-08T20:01:08.908Z,12.88
2022-12-08T20:03:36.146Z,13.23
2022-12-08T20:06:04.572Z,13.63
2022-12-08T20:08:32.001Z,14.98
2022-12-08T20:10:59.451Z,13.02
2022-12-08T20:13:41.628Z,13.38
2022-12-08T20:16:08.728Z,13.60
2022-12-08T20:18:42.755Z,12.95
2022-12-08T20:21:12.178Z,12.70
2022-12-08T20:23:39.245Z,12.48
2022-12-08T20:26:09.777Z,12.63
2022-12-08T20:28:37.785Z,12.32
2022-12-08T20:31:05.558Z,11.98
2022-12-08T20:33:33.277Z,11.63
2022-12-08T20:36:02.294Z,31.48
2022-12-08T20:38:29.850Z,11.45
2022-12-08T20:40:58.326Z,11.43
2022-12-08T20:43:26.470Z,11.40
2022-12-08T20:45:53.609Z,11.35
2022-12-08T20:48:21.009Z,11.10
2022-12-08T20:50:51.728Z,10.63
2022-12-08T20:53:21.588Z,12.48
2022-12-08T20:55:48.606Z,12.07
2022-12-08T20:58:15.905Z,11.10
2022-12-08T21:00:43.251Z,11.93
2022-12-08T21:03:12.680Z,11.77
2022-12-08T21:08:07.691Z,11.18
2022-12-08T21:10:39.145Z,12.75
2022-12-08T21:13:09.589Z,14.23
2022-12-08T21:15:36.984Z,14.05
2022-12-08T21:18:05.018Z,13.77
2022-12-08T21:20:32.689Z,14.53
2022-12-08T21:22:59.701Z,13.75
2022-12-08T21:25:27.391Z,13.27
2022-12-08T21:27:54.676Z,12.15
2022-12-08T21:30:22.771Z,11.85
2022-12-08T21:32:50.281Z,11.80
2022-12-08T21:35:17.660Z,12.68
2022-12-08T21:37:44.731Z,13.52
2022-12-08T21:40:12.784Z,12.40
2022-12-08T21:42:46.252Z,13.13
2022-12-08T21:45:16.963Z,13.35
2022-12-08T21:47:45.698Z,12.82
2022-12-08T21:50:15.024Z,12.73
2022-12-08T21:52:45.687Z,15.55
2022-12-08T21:55:15.070Z,13.50
2022-12-08T21:57:43.501Z,14.65
2022-12-08T22:00:15.430Z,13.93
2022-12-08T22:02:43.594Z,14.48
2022-12-08T22:05:11.548Z,13.48
2022-12-08T22:07:39.992Z,13.48
2022-12-08T22:10:09.201Z,14.38
2022-12-08T22:15:06.605Z,13.38
2022-12-08T22:17:41.397Z,14.45
2022-12-08T22:20:12.928Z,13.38
2022-12-08T22:22:41.030Z,13.73
2022-12-08T22:25:12.621Z,13.52
2022-12-08T22:27:41.088Z,12.20
2022-12-08T22:30:10.627Z,11.93
2022-12-08T22:32:38.602Z,12.63
2022-12-08T22:35:06.557Z,12.63
2022-12-08T22:37:34.230Z,13.43
2022-12-08T22:40:01.444Z,12.52
2022-12-08T22:42:30.402Z,13.05
2022-12-08T22:44:57.809Z,11.88
2022-12-08T22:47:24.774Z,11.77
2022-12-08T22:49:52.391Z,16.55
2022-12-08T22:52:19.561Z,11.95
2022-12-08T22:54:47.328Z,12.30
2022-12-08T22:57:14.874Z,11.75
2022-12-08T22:59:42.646Z,17.52
2022-12-08T23:02:10.946Z,15.50
2022-12-08T23:04:38.770Z,13.10
2022-12-08T23:07:06.044Z,11.25
2022-12-08T23:09:33.315Z,11.90
2022-12-08T23:12:00.785Z,11.63
2022-12-08T23:14:28.175Z,11.50
2022-12-08T23:16:55.497Z,12.15
2022-12-08T23:19:22.713Z,11.95
2022-12-08T23:21:49.997Z,11.20
2022-12-08T23:24:17.439Z,11.02
2022-12-08T23:26:44.898Z,11.88
2022-12-08T23:29:12.120Z,11.60
2022-12-08T23:31:39.598Z,11.30
2022-12-08T23:34:07.386Z,12.32
2022-12-08T23:36:35.185Z,13.02
2022-12-08T23:39:02.428Z,12.25
2022-12-08T23:41:29.574Z,11.52
2022-12-08T23:43:56.477Z,12.60
2022-12-08T23:46:23.809Z,11.95
2022-12-08T23:48:51.668Z,13.45
2022-12-08T23:51:19.690Z,12.77
2022-12-08T23:53:47.107Z,12.52
2022-12-08T23:56:17.054Z,12.38
2022-12-08T23:58:45.068Z,13.55
